sensor_id;sensor_type;location;lat;lon;timestamp;pressure;altitude;pressure_sealevel;temperature;humidity
74403;BME280;62837;51.082;13.744;2023-07-28T00:01:01;99283.75;;;19.61;69.62
74403;BME280;62837;51.082;13.744;2023-07-28T00:03:32;99278.91;;;19.64;69.72
74403;BME280;62837;51.082;13.744;2023-07-28T00:06:03;99287.27;;;19.63;70.16
74403;BME280;62837;51.082;13.744;2023-07-28T00:08:34;99278.77;;;19.57;70.59
74403;BME280;62837;51.082;13.744;2023-07-28T00:11:10;99280.43;;;19.57;70.26
74403;BME280;62837;51.082;13.744;2023-07-28T00:13:42;99276.42;;;19.61;70.34
74403;BME280;62837;51.082;13.744;2023-07-28T00:16:14;99278.14;;;19.57;71.15
74403;BME280;62837;51.082;13.744;2023-07-28T00:18:45;99272.72;;;19.49;70.82
74403;BME280;62837;51.082;13.744;2023-07-28T00:21:16;99270.69;;;19.45;71.06
74403;BME280;62837;51.082;13.744;2023-07-28T00:23:47;99270.73;;;19.44;71.36
74403;BME280;62837;51.082;13.744;2023-07-28T00:26:19;99270.86;;;19.40;71.27
74403;BME280;62837;51.082;13.744;2023-07-28T00:28:50;99263.27;;;19.41;71.13
74403;BME280;62837;51.082;13.744;2023-07-28T00:31:21;99264.02;;;19.45;71.04
74403;BME280;62837;51.082;13.744;2023-07-28T00:33:52;99262.55;;;19.45;71.62
74403;BME280;62837;51.082;13.744;2023-07-28T00:36:23;99262.78;;;19.39;71.74
74403;BME280;62837;51.082;13.744;2023-07-28T00:38:55;99254.95;;;19.38;71.73
74403;BME280;62837;51.082;13.744;2023-07-28T00:41:26;99255.94;;;19.39;72.01
74403;BME280;62837;51.082;13.744;2023-07-28T00:43:57;99257.36;;;19.36;72.15
74403;BME280;62837;51.082;13.744;2023-07-28T00:46:29;99256.80;;;19.36;72.00
74403;BME280;62837;51.082;13.744;2023-07-28T00:49:01;99258.55;;;19.35;71.86
74403;BME280;62837;51.082;13.744;2023-07-28T00:51:33;99255.92;;;19.36;71.87
74403;BME280;62837;51.082;13.744;2023-07-28T00:54:06;99253.98;;;19.44;71.59
74403;BME280;62837;51.082;13.744;2023-07-28T00:56:37;99256.48;;;19.51;71.53
74403;BME280;62837;51.082;13.744;2023-07-28T00:59:09;99248.73;;;19.53;71.45
74403;BME280;62837;51.082;13.744;2023-07-28T01:01:40;99245.11;;;19.54;71.26
74403;BME280;62837;51.082;13.744;2023-07-28T01:04:11;99243.39;;;19.55;71.59
74403;BME280;62837;51.082;13.744;2023-07-28T01:06:50;99241.73;;;19.53;71.49
74403;BME280;62837;51.082;13.744;2023-07-28T01:09:29;99243.86;;;19.48;71.52
74403;BME280;62837;51.082;13.744;2023-07-28T01:12:01;99249.40;;;19.47;71.72
74403;BME280;62837;51.082;13.744;2023-07-28T01:14:37;99250.02;;;19.45;71.92
74403;BME280;62837;51.082;13.744;2023-07-28T01:17:09;99238.71;;;19.44;71.39
74403;BME280;62837;51.082;13.744;2023-07-28T01:19:40;99240.55;;;19.49;71.41
74403;BME280;62837;51.082;13.744;2023-07-28T01:22:46;99239.95;;;19.55;71.39
74403;BME280;62837;51.082;13.744;2023-07-28T01:25:28;99245.53;;;19.59;71.66
74403;BME280;62837;51.082;13.744;2023-07-28T01:28:00;99247.23;;;19.58;72.08
74403;BME280;62837;51.082;13.744;2023-07-28T01:30:31;99250.05;;;19.54;72.26
74403;BME280;62837;51.082;13.744;2023-07-28T01:33:05;99251.39;;;19.56;72.04
74403;BME280;62837;51.082;13.744;2023-07-28T01:35:37;99252.02;;;19.58;72.20
74403;BME280;62837;51.082;13.744;2023-07-28T01:38:08;99247.82;;;19.54;72.38
74403;BME280;62837;51.082;13.744;2023-07-28T01:40:39;99245.02;;;19.56;72.16
74403;BME280;62837;51.082;13.744;2023-07-28T01:43:10;99247.97;;;19.58;72.24
74403;BME280;62837;51.082;13.744;2023-07-28T01:45:41;99251.02;;;19.57;72.30
74403;BME280;62837;51.082;13.744;2023-07-28T01:48:13;99251.80;;;19.54;72.44
74403;BME280;62837;51.082;13.744;2023-07-28T01:50:44;99252.40;;;19.51;72.46
74403;BME280;62837;51.082;13.744;2023-07-28T01:53:15;99249.35;;;19.48;72.66
74403;BME280;62837;51.082;13.744;2023-07-28T01:55:47;99249.27;;;19.44;72.66
74403;BME280;62837;51.082;13.744;2023-07-28T01:58:18;99249.48;;;19.45;72.67
74403;BME280;62837;51.082;13.744;2023-07-28T02:00:49;99245.97;;;19.45;72.74
74403;BME280;62837;51.082;13.744;2023-07-28T02:03:20;99246.19;;;19.46;72.83
74403;BME280;62837;51.082;13.744;2023-07-28T02:05:52;99246.81;;;19.48;72.96
74403;BME280;62837;51.082;13.744;2023-07-28T02:08:23;99244.38;;;19.45;73.19
74403;BME280;62837;51.082;13.744;2023-07-28T02:10:56;99239.92;;;19.38;73.06
74403;BME280;62837;51.082;13.744;2023-07-28T02:13:27;99241.90;;;19.39;72.97
74403;BME280;62837;51.082;13.744;2023-07-28T02:15:58;99246.51;;;19.42;73.02
74403;BME280;62837;51.082;13.744;2023-07-28T02:18:29;99253.61;;;19.44;72.85
74403;BME280;62837;51.082;13.744;2023-07-28T02:21:00;99254.16;;;19.46;73.10
74403;BME280;62837;51.082;13.744;2023-07-28T02:23:31;99248.70;;;19.43;73.47
74403;BME280;62837;51.082;13.744;2023-07-28T02:26:02;99248.09;;;19.38;73.32
74403;BME280;62837;51.082;13.744;2023-07-28T02:28:33;99250.27;;;19.36;73.37
74403;BME280;62837;51.082;13.744;2023-07-28T02:31:05;99248.38;;;19.36;73.30
74403;BME280;62837;51.082;13.744;2023-07-28T02:33:36;99246.14;;;19.39;73.18
74403;BME280;62837;51.082;13.744;2023-07-28T02:36:07;99248.13;;;19.45;73.05
74403;BME280;62837;51.082;13.744;2023-07-28T02:38:38;99251.05;;;19.51;72.98
74403;BME280;62837;51.082;13.744;2023-07-28T02:41:09;99248.52;;;19.51;72.84
74403;BME280;62837;51.082;13.744;2023-07-28T02:43:40;99236.45;;;19.53;72.99
74403;BME280;62837;51.082;13.744;2023-07-28T02:46:11;99236.66;;;19.50;72.86
74403;BME280;62837;51.082;13.744;2023-07-28T02:48:43;99240.49;;;19.50;72.89
74403;BME280;62837;51.082;13.744;2023-07-28T02:51:14;99233.69;;;19.54;73.16
74403;BME280;62837;51.082;13.744;2023-07-28T02:53:45;99232.82;;;19.53;72.95
74403;BME280;62837;51.082;13.744;2023-07-28T02:56:16;99232.23;;;19.57;72.89
74403;BME280;62837;51.082;13.744;2023-07-28T02:58:48;99229.54;;;19.58;72.68
74403;BME280;62837;51.082;13.744;2023-07-28T03:01:19;99224.02;;;19.59;72.58
74403;BME280;62837;51.082;13.744;2023-07-28T03:03:51;99224.89;;;19.59;72.79
74403;BME280;62837;51.082;13.744;2023-07-28T03:06:22;99225.77;;;19.61;72.48
74403;BME280;62837;51.082;13.744;2023-07-28T03:08:54;99224.34;;;19.64;72.14
74403;BME280;62837;51.082;13.744;2023-07-28T03:11:46;99227.73;;;19.68;71.68
74403;BME280;62837;51.082;13.744;2023-07-28T03:14:17;99227.97;;;19.73;71.12
74403;BME280;62837;51.082;13.744;2023-07-28T03:16:48;99234.70;;;19.78;71.55
74403;BME280;62837;51.082;13.744;2023-07-28T03:19:19;99248.69;;;19.75;72.50
74403;BME280;62837;51.082;13.744;2023-07-28T03:21:51;99240.12;;;19.69;72.08
74403;BME280;62837;51.082;13.744;2023-07-28T03:24:22;99232.32;;;19.67;72.34
74403;BME280;62837;51.082;13.744;2023-07-28T03:26:53;99235.33;;;19.66;72.24
74403;BME280;62837;51.082;13.744;2023-07-28T03:29:24;99240.40;;;19.68;72.36
74403;BME280;62837;51.082;13.744;2023-07-28T03:31:55;99248.01;;;19.69;72.41
74403;BME280;62837;51.082;13.744;2023-07-28T03:34:27;99250.17;;;19.67;72.66
74403;BME280;62837;51.082;13.744;2023-07-28T03:36:58;99251.27;;;19.64;72.55
74403;BME280;62837;51.082;13.744;2023-07-28T03:39:29;99255.54;;;19.65;72.68
74403;BME280;62837;51.082;13.744;2023-07-28T03:42:01;99253.69;;;19.67;72.83
74403;BME280;62837;51.082;13.744;2023-07-28T03:44:34;99248.83;;;19.67;72.71
74403;BME280;62837;51.082;13.744;2023-07-28T03:47:07;99240.23;;;19.68;72.75
74403;BME280;62837;51.082;13.744;2023-07-28T03:49:39;99244.48;;;19.69;72.88
74403;BME280;62837;51.082;13.744;2023-07-28T03:52:10;99249.36;;;19.68;73.00
74403;BME280;62837;51.082;13.744;2023-07-28T03:54:41;99257.94;;;19.56;73.91
74403;BME280;62837;51.082;13.744;2023-07-28T03:57:12;99255.08;;;19.48;73.43
74403;BME280;62837;51.082;13.744;2023-07-28T03:59:44;99251.37;;;19.49;73.64
74403;BME280;62837;51.082;13.744;2023-07-28T04:02:15;99249.38;;;19.51;73.47
74403;BME280;62837;51.082;13.744;2023-07-28T04:04:46;99249.98;;;19.55;73.59
74403;BME280;62837;51.082;13.744;2023-07-28T04:07:17;99250.73;;;19.53;73.87
74403;BME280;62837;51.082;13.744;2023-07-28T04:09:48;99249.56;;;19.45;74.23
74403;BME280;62837;51.082;13.744;2023-07-28T04:12:19;99251.73;;;19.37;74.42
74403;BME280;62837;51.082;13.744;2023-07-28T04:14:50;99250.11;;;19.36;74.37
74403;BME280;62837;51.082;13.744;2023-07-28T04:17:25;99247.34;;;19.34;74.55
74403;BME280;62837;51.082;13.744;2023-07-28T04:19:55;99252.23;;;19.35;74.49
74403;BME280;62837;51.082;13.744;2023-07-28T04:22:27;99260.64;;;19.32;75.10
74403;BME280;62837;51.082;13.744;2023-07-28T04:24:58;99261.32;;;19.24;75.41
74403;BME280;62837;51.082;13.744;2023-07-28T04:27:30;99260.96;;;19.21;75.69
74403;BME280;62837;51.082;13.744;2023-07-28T04:30:03;99262.83;;;19.17;75.86
74403;BME280;62837;51.082;13.744;2023-07-28T04:32:35;99261.84;;;19.14;75.91
74403;BME280;62837;51.082;13.744;2023-07-28T04:35:14;99266.69;;;19.12;76.27
74403;BME280;62837;51.082;13.744;2023-07-28T04:38:05;99263.55;;;19.11;76.17
74403;BME280;62837;51.082;13.744;2023-07-28T04:40:45;99270.39;;;19.15;75.98
74403;BME280;62837;51.082;13.744;2023-07-28T04:43:18;99276.02;;;19.17;76.23
74403;BME280;62837;51.082;13.744;2023-07-28T04:45:53;99277.08;;;19.15;76.13
74403;BME280;62837;51.082;13.744;2023-07-28T04:48:26;99275.83;;;19.16;75.82
74403;BME280;62837;51.082;13.744;2023-07-28T04:50:58;99272.48;;;19.22;75.69
74403;BME280;62837;51.082;13.744;2023-07-28T04:53:47;99274.94;;;19.29;75.41
74403;BME280;62837;51.082;13.744;2023-07-28T04:56:25;99275.98;;;19.36;75.04
74403;BME280;62837;51.082;13.744;2023-07-28T04:58:56;99277.58;;;19.41;75.04
74403;BME280;62837;51.082;13.744;2023-07-28T05:01:26;99277.98;;;19.40;74.96
74403;BME280;62837;51.082;13.744;2023-07-28T05:03:58;99279.84;;;19.41;74.97
74403;BME280;62837;51.082;13.744;2023-07-28T05:06:30;99280.05;;;19.36;74.92
74403;BME280;62837;51.082;13.744;2023-07-28T05:09:02;99278.99;;;19.33;75.04
74403;BME280;62837;51.082;13.744;2023-07-28T05:11:35;99276.45;;;19.26;74.91
74403;BME280;62837;51.082;13.744;2023-07-28T05:14:07;99283.15;;;19.31;74.81
74403;BME280;62837;51.082;13.744;2023-07-28T05:16:39;99276.18;;;19.36;74.82
74403;BME280;62837;51.082;13.744;2023-07-28T05:19:13;99283.74;;;19.39;74.78
74403;BME280;62837;51.082;13.744;2023-07-28T05:22:03;99285.45;;;19.42;74.70
74403;BME280;62837;51.082;13.744;2023-07-28T05:24:45;99287.85;;;19.40;74.42
74403;BME280;62837;51.082;13.744;2023-07-28T05:27:17;99291.86;;;19.39;74.47
74403;BME280;62837;51.082;13.744;2023-07-28T05:29:49;99294.83;;;19.44;74.38
74403;BME280;62837;51.082;13.744;2023-07-28T05:32:20;99298.47;;;19.47;74.20
74403;BME280;62837;51.082;13.744;2023-07-28T05:35:11;99301.88;;;19.46;74.37
74403;BME280;62837;51.082;13.744;2023-07-28T05:37:43;99306.52;;;19.45;74.25
74403;BME280;62837;51.082;13.744;2023-07-28T05:40:14;99310.05;;;19.46;74.38
74403;BME280;62837;51.082;13.744;2023-07-28T05:42:45;99306.86;;;19.50;74.14
74403;BME280;62837;51.082;13.744;2023-07-28T05:45:17;99311.32;;;19.50;74.18
74403;BME280;62837;51.082;13.744;2023-07-28T05:47:48;99309.91;;;19.49;74.39
74403;BME280;62837;51.082;13.744;2023-07-28T05:50:20;99311.23;;;19.49;74.08
74403;BME280;62837;51.082;13.744;2023-07-28T05:52:51;99309.22;;;19.53;74.15
74403;BME280;62837;51.082;13.744;2023-07-28T05:55:22;99309.03;;;19.55;74.20
74403;BME280;62837;51.082;13.744;2023-07-28T05:57:53;99310.05;;;19.55;74.23
74403;BME280;62837;51.082;13.744;2023-07-28T06:00:25;99310.66;;;19.60;73.81
74403;BME280;62837;51.082;13.744;2023-07-28T06:02:57;99311.53;;;19.62;73.78
74403;BME280;62837;51.082;13.744;2023-07-28T06:05:48;99310.44;;;19.63;73.56
74403;BME280;62837;51.082;13.744;2023-07-28T06:08:20;99310.83;;;19.65;73.64
74403;BME280;62837;51.082;13.744;2023-07-28T06:10:51;99314.44;;;19.68;73.70
74403;BME280;62837;51.082;13.744;2023-07-28T06:13:22;99321.95;;;19.71;73.52
74403;BME280;62837;51.082;13.744;2023-07-28T06:15:55;99324.54;;;19.76;73.55
74403;BME280;62837;51.082;13.744;2023-07-28T06:18:28;99323.91;;;19.79;73.34
74403;BME280;62837;51.082;13.744;2023-07-28T06:21:09;99326.89;;;19.80;73.24
74403;BME280;62837;51.082;13.744;2023-07-28T06:23:41;99328.96;;;19.83;73.03
74403;BME280;62837;51.082;13.744;2023-07-28T06:26:12;99327.45;;;19.83;72.96
74403;BME280;62837;51.082;13.744;2023-07-28T06:28:44;99323.16;;;19.83;72.91
74403;BME280;62837;51.082;13.744;2023-07-28T06:31:15;99328.41;;;19.88;72.96
74403;BME280;62837;51.082;13.744;2023-07-28T06:33:48;99329.61;;;20.03;72.93
74403;BME280;62837;51.082;13.744;2023-07-28T06:36:19;99335.96;;;20.48;72.70
74403;BME280;62837;51.082;13.744;2023-07-28T06:38:51;99332.41;;;20.93;72.04
74403;BME280;62837;51.082;13.744;2023-07-28T06:41:25;99334.05;;;21.51;70.83
74403;BME280;62837;51.082;13.744;2023-07-28T06:44:01;99339.20;;;22.11;69.98
74403;BME280;62837;51.082;13.744;2023-07-28T06:46:33;99342.04;;;22.71;68.67
74403;BME280;62837;51.082;13.744;2023-07-28T06:49:05;99350.35;;;23.23;66.63
74403;BME280;62837;51.082;13.744;2023-07-28T06:51:36;99351.27;;;23.48;65.48
74403;BME280;62837;51.082;13.744;2023-07-28T06:54:08;99351.73;;;23.54;64.12
74403;BME280;62837;51.082;13.744;2023-07-28T06:56:42;99352.06;;;23.47;63.44
74403;BME280;62837;51.082;13.744;2023-07-28T06:59:14;99340.44;;;23.29;62.44
74403;BME280;62837;51.082;13.744;2023-07-28T07:01:50;99349.06;;;23.16;62.66
74403;BME280;62837;51.082;13.744;2023-07-28T07:04:21;99352.36;;;22.98;62.50
74403;BME280;62837;51.082;13.744;2023-07-28T07:06:52;99354.39;;;22.78;62.76
74403;BME280;62837;51.082;13.744;2023-07-28T07:09:24;99355.30;;;22.60;62.96
74403;BME280;62837;51.082;13.744;2023-07-28T07:11:56;99357.62;;;22.40;63.35
74403;BME280;62837;51.082;13.744;2023-07-28T07:14:27;99360.21;;;22.19;63.76
74403;BME280;62837;51.082;13.744;2023-07-28T07:16:58;99356.26;;;22.11;64.15
74403;BME280;62837;51.082;13.744;2023-07-28T07:19:30;99361.85;;;22.11;64.40
74403;BME280;62837;51.082;13.744;2023-07-28T07:22:01;99361.83;;;22.08;64.55
74403;BME280;62837;51.082;13.744;2023-07-28T07:24:33;99365.37;;;22.08;64.32
74403;BME280;62837;51.082;13.744;2023-07-28T07:27:05;99364.98;;;22.05;64.26
74403;BME280;62837;51.082;13.744;2023-07-28T07:29:36;99367.59;;;21.98;64.29
74403;BME280;62837;51.082;13.744;2023-07-28T07:32:09;99369.88;;;21.92;64.24
74403;BME280;62837;51.082;13.744;2023-07-28T07:34:41;99373.91;;;21.81;64.43
74403;BME280;62837;51.082;13.744;2023-07-28T07:37:12;99375.09;;;21.72;64.84
74403;BME280;62837;51.082;13.744;2023-07-28T07:39:43;99381.00;;;21.58;65.09
74403;BME280;62837;51.082;13.744;2023-07-28T07:42:15;99383.20;;;21.45;65.06
74403;BME280;62837;51.082;13.744;2023-07-28T07:44:46;99381.91;;;21.39;65.08
74403;BME280;62837;51.082;13.744;2023-07-28T07:47:17;99379.06;;;21.32;65.84
74403;BME280;62837;51.082;13.744;2023-07-28T07:49:48;99382.66;;;21.27;66.07
74403;BME280;62837;51.082;13.744;2023-07-28T07:52:19;99383.23;;;21.28;66.39
74403;BME280;62837;51.082;13.744;2023-07-28T07:54:50;99385.40;;;21.28;66.11
74403;BME280;62837;51.082;13.744;2023-07-28T07:57:21;99386.48;;;21.31;65.65
74403;BME280;62837;51.082;13.744;2023-07-28T07:59:53;99385.77;;;21.37;65.37
74403;BME280;62837;51.082;13.744;2023-07-28T08:02:24;99385.98;;;21.44;65.39
74403;BME280;62837;51.082;13.744;2023-07-28T08:04:55;99392.45;;;21.53;65.15
74403;BME280;62837;51.082;13.744;2023-07-28T08:07:27;99390.85;;;21.61;64.99
74403;BME280;62837;51.082;13.744;2023-07-28T08:09:58;99394.23;;;21.67;65.11
74403;BME280;62837;51.082;13.744;2023-07-28T08:12:30;99391.24;;;21.72;64.83
74403;BME280;62837;51.082;13.744;2023-07-28T08:15:01;99391.52;;;21.80;64.75
74403;BME280;62837;51.082;13.744;2023-07-28T08:17:32;99388.63;;;21.93;64.47
74403;BME280;62837;51.082;13.744;2023-07-28T08:20:04;99385.09;;;22.19;64.35
74403;BME280;62837;51.082;13.744;2023-07-28T08:22:36;99385.02;;;22.57;63.97
74403;BME280;62837;51.082;13.744;2023-07-28T08:25:08;99384.34;;;22.85;63.15
74403;BME280;62837;51.082;13.744;2023-07-28T08:27:39;99383.73;;;22.93;62.54
74403;BME280;62837;51.082;13.744;2023-07-28T08:30:13;99384.81;;;22.91;62.27
74403;BME280;62837;51.082;13.744;2023-07-28T08:32:45;99383.60;;;22.81;61.97
74403;BME280;62837;51.082;13.744;2023-07-28T08:35:17;99390.42;;;22.72;61.84
74403;BME280;62837;51.082;13.744;2023-07-28T08:37:49;99396.51;;;22.65;61.71
74403;BME280;62837;51.082;13.744;2023-07-28T08:40:20;99398.36;;;22.56;61.71
74403;BME280;62837;51.082;13.744;2023-07-28T08:42:51;99399.29;;;22.46;61.84
74403;BME280;62837;51.082;13.744;2023-07-28T08:45:23;99401.82;;;22.32;61.96
74403;BME280;62837;51.082;13.744;2023-07-28T08:47:55;99404.44;;;22.18;62.13
74403;BME280;62837;51.082;13.744;2023-07-28T08:50:27;99410.27;;;22.07;62.36
74403;BME280;62837;51.082;13.744;2023-07-28T08:52:59;99413.02;;;21.98;62.61
74403;BME280;62837;51.082;13.744;2023-07-28T08:55:30;99415.14;;;21.89;62.96
74403;BME280;62837;51.082;13.744;2023-07-28T08:58:16;99423.34;;;21.82;63.11
74403;BME280;62837;51.082;13.744;2023-07-28T09:00:50;99425.34;;;21.74;63.48
74403;BME280;62837;51.082;13.744;2023-07-28T09:03:22;99432.94;;;21.68;63.63
74403;BME280;62837;51.082;13.744;2023-07-28T09:06:02;99428.66;;;21.66;63.60
74403;BME280;62837;51.082;13.744;2023-07-28T09:08:33;99433.61;;;21.66;63.66
74403;BME280;62837;51.082;13.744;2023-07-28T09:11:06;99438.73;;;21.66;63.60
74403;BME280;62837;51.082;13.744;2023-07-28T09:13:39;99441.08;;;21.67;63.64
74403;BME280;62837;51.082;13.744;2023-07-28T09:16:21;99442.14;;;21.71;63.46
74403;BME280;62837;51.082;13.744;2023-07-28T09:19:05;99441.35;;;21.77;63.68
74403;BME280;62837;51.082;13.744;2023-07-28T09:21:37;99441.25;;;21.85;63.48
74403;BME280;62837;51.082;13.744;2023-07-28T09:24:11;99446.59;;;21.92;63.68
74403;BME280;62837;51.082;13.744;2023-07-28T09:26:43;99448.08;;;21.96;63.66
74403;BME280;62837;51.082;13.744;2023-07-28T09:29:16;99453.98;;;22.02;63.58
74403;BME280;62837;51.082;13.744;2023-07-28T09:31:49;99455.02;;;22.07;63.64
74403;BME280;62837;51.082;13.744;2023-07-28T09:34:26;99454.13;;;22.13;63.47
74403;BME280;62837;51.082;13.744;2023-07-28T09:36:59;99445.33;;;22.21;63.27
74403;BME280;62837;51.082;13.744;2023-07-28T09:39:32;99446.23;;;22.43;62.70
74403;BME280;62837;51.082;13.744;2023-07-28T09:42:06;99449.61;;;22.81;62.15
74403;BME280;62837;51.082;13.744;2023-07-28T09:44:39;99443.83;;;23.14;61.50
74403;BME280;62837;51.082;13.744;2023-07-28T09:47:11;99446.65;;;23.33;61.36
74403;BME280;62837;51.082;13.744;2023-07-28T09:49:46;99444.77;;;23.59;60.40
74403;BME280;62837;51.082;13.744;2023-07-28T09:52:19;99444.72;;;23.76;59.77
74403;BME280;62837;51.082;13.744;2023-07-28T09:54:54;99450.17;;;23.75;59.55
74403;BME280;62837;51.082;13.744;2023-07-28T09:57:29;99446.40;;;23.80;59.63
74403;BME280;62837;51.082;13.744;2023-07-28T10:00:02;99443.69;;;23.84;59.09
74403;BME280;62837;51.082;13.744;2023-07-28T10:02:54;99443.77;;;23.88;58.49
74403;BME280;62837;51.082;13.744;2023-07-28T10:05:26;99434.80;;;24.06;58.47
74403;BME280;62837;51.082;13.744;2023-07-28T10:07:59;99442.67;;;24.10;57.77
74403;BME280;62837;51.082;13.744;2023-07-28T10:10:31;99444.38;;;23.99;57.68
74403;BME280;62837;51.082;13.744;2023-07-28T10:13:03;99442.56;;;23.89;57.90
74403;BME280;62837;51.082;13.744;2023-07-28T10:15:35;99442.76;;;23.82;57.79
74403;BME280;62837;51.082;13.744;2023-07-28T10:18:08;99446.50;;;23.80;58.18
74403;BME280;62837;51.082;13.744;2023-07-28T10:20:42;99442.11;;;23.82;58.30
74403;BME280;62837;51.082;13.744;2023-07-28T10:23:19;99447.00;;;23.82;57.95
74403;BME280;62837;51.082;13.744;2023-07-28T10:25:58;99444.66;;;23.80;57.92
74403;BME280;62837;51.082;13.744;2023-07-28T10:28:31;99456.02;;;23.79;57.84
74403;BME280;62837;51.082;13.744;2023-07-28T10:31:05;99454.95;;;23.74;57.78
74403;BME280;62837;51.082;13.744;2023-07-28T10:33:37;99456.48;;;23.70;57.66
74403;BME280;62837;51.082;13.744;2023-07-28T10:36:16;99452.70;;;23.70;58.31
74403;BME280;62837;51.082;13.744;2023-07-28T10:38:48;99453.27;;;23.70;58.62
74403;BME280;62837;51.082;13.744;2023-07-28T10:41:30;99454.89;;;23.68;58.60
74403;BME280;62837;51.082;13.744;2023-07-28T10:44:01;99462.13;;;23.68;58.73
74403;BME280;62837;51.082;13.744;2023-07-28T10:46:36;99457.80;;;23.84;59.00
74403;BME280;62837;51.082;13.744;2023-07-28T10:49:08;99459.13;;;23.97;59.10
74403;BME280;62837;51.082;13.744;2023-07-28T10:51:40;99456.55;;;24.22;58.83
74403;BME280;62837;51.082;13.744;2023-07-28T10:54:10;99453.46;;;24.49;58.44
74403;BME280;62837;51.082;13.744;2023-07-28T10:56:45;99451.91;;;24.57;57.68
74403;BME280;62837;51.082;13.744;2023-07-28T10:59:16;99451.85;;;24.63;57.66
74403;BME280;62837;51.082;13.744;2023-07-28T11:01:47;99453.62;;;24.63;56.96
74403;BME280;62837;51.082;13.744;2023-07-28T11:04:19;99449.45;;;24.73;57.14
74403;BME280;62837;51.082;13.744;2023-07-28T11:06:52;99441.29;;;24.79;57.45
74403;BME280;62837;51.082;13.744;2023-07-28T11:09:24;99437.83;;;24.80;56.31
74403;BME280;62837;51.082;13.744;2023-07-28T11:11:56;99434.73;;;24.90;56.63
74403;BME280;62837;51.082;13.744;2023-07-28T11:14:27;99431.11;;;25.00;56.14
74403;BME280;62837;51.082;13.744;2023-07-28T11:16:59;99430.11;;;25.09;55.91
74403;BME280;62837;51.082;13.744;2023-07-28T11:19:30;99433.45;;;25.17;55.59
74403;BME280;62837;51.082;13.744;2023-07-28T11:22:01;99427.32;;;25.21;55.19
74403;BME280;62837;51.082;13.744;2023-07-28T11:24:33;99428.95;;;25.22;55.18
74403;BME280;62837;51.082;13.744;2023-07-28T11:27:05;99426.82;;;25.31;54.96
74403;BME280;62837;51.082;13.744;2023-07-28T11:29:38;99426.64;;;25.37;54.60
74403;BME280;62837;51.082;13.744;2023-07-28T11:32:09;99433.55;;;25.23;53.70
74403;BME280;62837;51.082;13.744;2023-07-28T11:34:40;99438.56;;;25.26;54.04
74403;BME280;62837;51.082;13.744;2023-07-28T11:37:13;99440.14;;;25.18;53.81
74403;BME280;62837;51.082;13.744;2023-07-28T11:39:45;99441.66;;;25.12;54.18
74403;BME280;62837;51.082;13.744;2023-07-28T11:42:16;99445.44;;;25.12;54.49
74403;BME280;62837;51.082;13.744;2023-07-28T11:44:48;99439.95;;;25.11;54.01
74403;BME280;62837;51.082;13.744;2023-07-28T11:47:20;99441.66;;;25.17;54.40
74403;BME280;62837;51.082;13.744;2023-07-28T11:49:51;99436.27;;;25.36;53.85
74403;BME280;62837;51.082;13.744;2023-07-28T11:52:23;99435.55;;;25.42;52.53
74403;BME280;62837;51.082;13.744;2023-07-28T11:54:54;99428.14;;;25.34;52.05
74403;BME280;62837;51.082;13.744;2023-07-28T11:57:26;99441.49;;;25.34;52.61
74403;BME280;62837;51.082;13.744;2023-07-28T12:00:00;99447.39;;;25.25;52.06
74403;BME280;62837;51.082;13.744;2023-07-28T12:02:33;99448.59;;;25.18;52.08
74403;BME280;62837;51.082;13.744;2023-07-28T12:05:13;99450.31;;;25.16;52.26
74403;BME280;62837;51.082;13.744;2023-07-28T12:07:50;99453.30;;;25.22;52.59
74403;BME280;62837;51.082;13.744;2023-07-28T12:10:21;99453.94;;;25.44;51.90
74403;BME280;62837;51.082;13.744;2023-07-28T12:12:57;99454.83;;;25.60;51.07
74403;BME280;62837;51.082;13.744;2023-07-28T12:15:32;99453.21;;;25.72;51.60
74403;BME280;62837;51.082;13.744;2023-07-28T12:18:08;99457.15;;;25.85;51.52
74403;BME280;62837;51.082;13.744;2023-07-28T12:20:45;99456.77;;;25.87;51.01
74403;BME280;62837;51.082;13.744;2023-07-28T12:23:19;99458.08;;;25.82;50.76
74403;BME280;62837;51.082;13.744;2023-07-28T12:25:53;99461.13;;;25.68;50.43
74403;BME280;62837;51.082;13.744;2023-07-28T12:28:26;99461.82;;;25.55;50.76
74403;BME280;62837;51.082;13.744;2023-07-28T12:30:57;99458.06;;;25.52;51.52
74403;BME280;62837;51.082;13.744;2023-07-28T12:33:29;99453.65;;;25.63;52.54
74403;BME280;62837;51.082;13.744;2023-07-28T12:36:03;99450.67;;;25.75;52.52
74403;BME280;62837;51.082;13.744;2023-07-28T12:38:39;99446.17;;;25.88;52.09
74403;BME280;62837;51.082;13.744;2023-07-28T12:41:11;99454.52;;;25.80;51.35
74403;BME280;62837;51.082;13.744;2023-07-28T12:43:50;99451.52;;;25.65;51.58
74403;BME280;62837;51.082;13.744;2023-07-28T12:46:24;99455.52;;;25.57;51.59
74403;BME280;62837;51.082;13.744;2023-07-28T12:48:55;99457.41;;;25.55;51.94
74403;BME280;62837;51.082;13.744;2023-07-28T12:51:28;99460.84;;;25.49;51.33
74403;BME280;62837;51.082;13.744;2023-07-28T12:54:00;99458.93;;;25.33;51.12
74403;BME280;62837;51.082;13.744;2023-07-28T12:56:32;99466.46;;;25.20;51.74
74403;BME280;62837;51.082;13.744;2023-07-28T12:59:06;99470.45;;;25.12;52.32
74403;BME280;62837;51.082;13.744;2023-07-28T13:01:41;99466.23;;;25.10;52.28
74403;BME280;62837;51.082;13.744;2023-07-28T13:04:13;99470.57;;;25.21;52.45
74403;BME280;62837;51.082;13.744;2023-07-28T13:06:44;99468.23;;;25.31;52.39
74403;BME280;62837;51.082;13.744;2023-07-28T13:09:15;99465.18;;;25.43;52.76
74403;BME280;62837;51.082;13.744;2023-07-28T13:11:49;99466.52;;;25.52;53.08
74403;BME280;62837;51.082;13.744;2023-07-28T13:14:23;99470.06;;;25.63;52.81
74403;BME280;62837;51.082;13.744;2023-07-28T13:16:55;99469.34;;;25.75;52.50
74403;BME280;62837;51.082;13.744;2023-07-28T13:19:26;99469.10;;;25.88;51.90